createdAt,value
2022-09-17T00:00:02.849Z,13.60
2022-09-17T00:03:05.469Z,13.52
2022-09-17T00:06:10.256Z,13.51
2022-09-17T00:09:12.140Z,13.63
2022-09-17T00:12:14.163Z,13.57
2022-09-17T00:15:16.585Z,13.49
2022-09-17T00:18:18.680Z,13.52
2022-09-17T00:21:21.546Z,13.45
2022-09-17T00:24:23.713Z,13.41
2022-09-17T00:27:25.335Z,13.48
2022-09-17T00:30:27.244Z,13.49
2022-09-17T00:33:28.880Z,13.49
2022-09-17T00:36:31.714Z,13.42
2022-09-17T00:39:33.366Z,13.41
2022-09-17T00:42:35.163Z,13.57
2022-09-17T00:45:38.522Z,13.42
2022-09-17T00:48:41.837Z,13.37
2022-09-17T00:52:00.752Z,13.37
2022-09-17T00:55:25.085Z,13.47
2022-09-17T00:58:27.397Z,13.30
2022-09-17T01:01:30.235Z,13.21
2022-09-17T01:04:31.996Z,13.23
2022-09-17T01:07:48.429Z,13.23
2022-09-17T01:11:03.800Z,13.27
2022-09-17T01:14:14.750Z,13.24
2022-09-17T01:17:31.302Z,13.14
2022-09-17T01:20:54.758Z,13.11
2022-09-17T01:24:17.832Z,13.19
2022-09-17T01:27:58.306Z,13.11
2022-09-17T01:31:18.795Z,13.04
2022-09-17T01:34:32.051Z,13.03
2022-09-17T01:38:03.657Z,13.00
2022-09-17T01:41:14.108Z,13.01
2022-09-17T01:44:25.841Z,12.98
2022-09-17T01:47:42.215Z,13.05
2022-09-17T01:51:10.834Z,13.00
2022-09-17T01:54:45.072Z,12.93
2022-09-17T01:58:15.048Z,12.99
2022-09-17T02:01:19.993Z,13.10
2022-09-17T02:04:34.419Z,12.96
2022-09-17T02:07:42.448Z,12.92
2022-09-17T02:10:48.057Z,12.82
2022-09-17T02:14:21.986Z,12.84
2022-09-17T02:17:35.088Z,12.87
2022-09-17T02:20:51.101Z,12.82
2022-09-17T02:24:18.011Z,12.78
2022-09-17T02:27:30.025Z,12.72
2022-09-17T02:30:32.247Z,12.73
2022-09-17T02:33:35.810Z,12.73
2022-09-17T02:36:37.952Z,12.68
2022-09-17T02:39:40.093Z,12.64
2022-09-17T02:43:19.962Z,12.71
2022-09-17T02:46:30.447Z,12.74
2022-09-17T02:50:10.685Z,12.68
2022-09-17T02:53:57.780Z,12.68
2022-09-17T02:57:14.405Z,12.67
2022-09-17T03:00:18.973Z,12.58
2022-09-17T03:03:31.812Z,12.61
2022-09-17T03:06:33.694Z,12.57
2022-09-17T03:09:36.063Z,12.60
2022-09-17T03:12:38.580Z,12.60
2022-09-17T03:15:40.145Z,12.66
2022-09-17T03:18:41.992Z,12.55
2022-09-17T03:21:43.619Z,12.61
2022-09-17T03:24:45.603Z,12.68
2022-09-17T03:27:48.713Z,12.70
2022-09-17T03:30:50.604Z,12.73
2022-09-17T03:33:52.180Z,12.72
2022-09-17T03:36:54.067Z,12.66
2022-09-17T03:39:55.921Z,12.69
2022-09-17T03:42:57.568Z,12.88
2022-09-17T03:46:00.665Z,12.87
2022-09-17T03:49:02.606Z,12.87
2022-09-17T03:52:04.500Z,13.07
2022-09-17T03:55:06.856Z,12.78
2022-09-17T03:58:08.784Z,12.66
2022-09-17T04:01:10.524Z,12.66
2022-09-17T04:04:12.456Z,12.73
2022-09-17T04:07:14.087Z,12.66
2022-09-17T04:10:16.206Z,12.57
2022-09-17T04:13:18.454Z,12.57
2022-09-17T04:16:20.319Z,12.57
2022-09-17T04:19:22.016Z,12.46
2022-09-17T04:22:24.116Z,12.58
2022-09-17T04:25:25.923Z,12.57
2022-09-17T04:28:27.828Z,12.46
2022-09-17T04:31:29.689Z,12.38
2022-09-17T04:34:32.389Z,12.36
2022-09-17T04:37:34.242Z,12.38
2022-09-17T04:40:36.230Z,12.39
2022-09-17T04:43:38.031Z,12.34
2022-09-17T04:46:40.223Z,12.31
2022-09-17T04:49:41.968Z,12.36
2022-09-17T04:52:45.050Z,12.34
2022-09-17T04:55:46.633Z,12.36
2022-09-17T04:58:48.710Z,12.38
2022-09-17T05:01:50.430Z,12.44
2022-09-17T05:04:52.352Z,12.47
2022-09-17T05:07:54.075Z,12.49
2022-09-17T05:10:56.743Z,12.62
2022-09-17T05:13:58.601Z,12.51
2022-09-17T05:17:00.192Z,12.48
2022-09-17T05:20:02.140Z,12.35
2022-09-17T05:23:03.945Z,12.40
2022-09-17T05:26:05.544Z,12.35
2022-09-17T05:29:07.347Z,12.37
2022-09-17T05:32:09.090Z,12.40
2022-09-17T05:35:11.301Z,12.50
2022-09-17T05:38:13.075Z,12.54
2022-09-17T05:41:14.982Z,12.38
2022-09-17T05:44:18.212Z,12.52
2022-09-17T05:47:20.032Z,12.85
2022-09-17T05:50:21.664Z,12.63
2022-09-17T05:53:23.675Z,12.58
2022-09-17T05:56:25.355Z,12.41
2022-09-17T05:59:28.083Z,12.50
2022-09-17T06:02:29.680Z,12.59
2022-09-17T06:05:31.896Z,12.66
2022-09-17T06:08:36.912Z,12.74
2022-09-17T06:11:38.752Z,12.70
2022-09-17T06:14:40.346Z,12.83
2022-09-17T06:17:43.464Z,12.59
2022-09-17T06:20:53.976Z,12.93
2022-09-17T06:23:55.940Z,12.70
2022-09-17T06:26:57.508Z,12.84
2022-09-17T06:30:00.139Z,12.78
2022-09-17T06:33:01.900Z,12.90
2022-09-17T06:36:12.403Z,13.10
2022-09-17T06:39:16.159Z,12.96
2022-09-17T06:42:17.792Z,13.13
2022-09-17T06:45:19.913Z,13.15
2022-09-17T06:48:23.123Z,13.13
2022-09-17T06:51:24.691Z,12.89
2022-09-17T06:54:26.570Z,12.90
2022-09-17T06:57:28.200Z,13.07
2022-09-17T07:00:30.362Z,13.23
2022-09-17T07:03:32.499Z,13.11
2022-09-17T07:06:34.097Z,13.15
2022-09-17T07:09:35.710Z,13.06
2022-09-17T07:12:42.945Z,13.13
2022-09-17T07:15:53.483Z,13.27
2022-09-17T07:18:55.398Z,13.28
2022-09-17T07:21:56.995Z,13.23
2022-09-17T07:24:58.787Z,13.48
2022-09-17T07:28:03.409Z,13.54
2022-09-17T07:31:10.268Z,13.27
2022-09-17T07:34:14.324Z,13.20
2022-09-17T07:37:16.618Z,13.18
2022-09-17T07:40:18.271Z,13.19
2022-09-17T07:43:20.742Z,13.21
2022-09-17T07:46:22.658Z,13.28
2022-09-17T07:49:24.542Z,13.39
2022-09-17T07:52:27.839Z,13.45
2022-09-17T07:55:29.569Z,13.42
2022-09-17T07:58:33.921Z,13.45
2022-09-17T08:01:36.700Z,13.47
2022-09-17T08:04:38.573Z,13.52
2022-09-17T08:07:40.234Z,13.60
2022-09-17T08:10:42.042Z,13.76
2022-09-17T08:13:47.408Z,13.67
2022-09-17T08:16:49.042Z,13.72
2022-09-17T08:19:50.603Z,13.64
2022-09-17T08:22:59.515Z,13.56
2022-09-17T08:26:01.879Z,13.38
2022-09-17T08:29:03.656Z,13.41
2022-09-17T08:32:05.653Z,13.47
2022-09-17T08:35:07.914Z,13.31
2022-09-17T08:38:09.584Z,13.26
2022-09-17T08:41:14.057Z,13.35
2022-09-17T08:44:24.657Z,13.35
2022-09-17T08:47:31.209Z,13.42
2022-09-17T08:50:39.486Z,13.53
2022-09-17T08:53:55.041Z,13.55
2022-09-17T08:57:29.030Z,13.56
2022-09-17T09:00:45.055Z,13.63
2022-09-17T09:04:13.404Z,13.80
2022-09-17T09:07:19.997Z,13.91
2022-09-17T09:10:38.236Z,14.11
2022-09-17T09:13:48.267Z,14.12
2022-09-17T09:16:52.947Z,14.29
2022-09-17T09:19:56.390Z,14.45
2022-09-17T09:23:03.494Z,14.57
2022-09-17T09:26:19.808Z,14.52
2022-09-17T09:29:48.816Z,14.55
2022-09-17T09:33:09.151Z,14.66
2022-09-17T09:36:15.117Z,14.74
2022-09-17T09:39:34.685Z,14.60
2022-09-17T09:42:40.193Z,14.68
2022-09-17T09:45:56.796Z,14.76
2022-09-17T09:49:16.419Z,14.59
2022-09-17T09:52:45.171Z,14.74
2022-09-17T09:55:49.493Z,14.69
2022-09-17T09:58:51.127Z,14.60
2022-09-17T10:01:53.388Z,14.28
2022-09-17T10:05:08.648Z,14.23
2022-09-17T10:08:14.999Z,14.34
2022-09-17T10:11:25.203Z,14.41
2022-09-17T10:14:29.782Z,14.33
2022-09-17T10:17:31.633Z,14.35
2022-09-17T10:20:33.250Z,14.16
2022-09-17T10:23:38.621Z,14.28
2022-09-17T10:26:40.645Z,14.32
2022-09-17T10:29:44.669Z,14.27
2022-09-17T10:33:17.180Z,14.49
2022-09-17T10:36:38.703Z,14.58
2022-09-17T10:39:46.991Z,14.55
2022-09-17T10:42:50.807Z,14.50
2022-09-17T10:45:59.094Z,14.62
2022-09-17T10:49:36.264Z,14.69
2022-09-17T10:52:47.729Z,14.83
2022-09-17T10:55:56.213Z,15.16
2022-09-17T10:59:22.574Z,15.10
2022-09-17T11:02:34.705Z,15.03
2022-09-17T11:05:45.406Z,15.04
2022-09-17T11:08:59.380Z,15.00
2022-09-17T11:12:06.785Z,15.42
2022-09-17T11:15:23.560Z,15.95
2022-09-17T11:18:46.896Z,15.90
2022-09-17T11:22:19.082Z,15.84
2022-09-17T11:26:18.062Z,15.59
2022-09-17T11:29:53.149Z,15.66
2022-09-17T11:33:06.848Z,15.44
2022-09-17T11:36:21.968Z,15.35
2022-09-17T11:39:39.248Z,15.29
2022-09-17T11:42:56.885Z,15.31
2022-09-17T11:46:05.156Z,15.11
2022-09-17T11:49:34.594Z,15.02
2022-09-17T11:53:23.558Z,14.99
2022-09-17T11:56:46.122Z,14.90
2022-09-17T11:59:52.423Z,14.92
2022-09-17T12:03:02.633Z,14.91
2022-09-17T12:06:13.753Z,14.98
2022-09-17T12:09:26.460Z,14.96
2022-09-17T12:12:50.071Z,14.94
2022-09-17T12:16:06.653Z,14.91
2022-09-17T12:19:25.761Z,14.83
2022-09-17T12:22:39.569Z,14.99
2022-09-17T12:25:53.476Z,14.99
2022-09-17T12:29:05.976Z,15.11
2022-09-17T12:32:16.923Z,14.92
2022-09-17T12:36:00.226Z,15.22
2022-09-17T12:39:11.447Z,15.50
2022-09-17T12:42:21.675Z,15.60
2022-09-17T12:45:57.122Z,15.69
2022-09-17T12:49:20.461Z,15.38
2022-09-17T12:52:40.639Z,15.12
2022-09-17T12:56:01.361Z,15.09
2022-09-17T12:59:13.013Z,15.01
2022-09-17T13:02:20.641Z,14.89
2022-09-17T13:05:50.329Z,14.65
2022-09-17T13:08:58.171Z,14.82
2022-09-17T13:12:03.354Z,14.59
2022-09-17T13:15:46.717Z,14.50
2022-09-17T13:19:23.357Z,14.42
2022-09-17T13:22:29.715Z,14.30
2022-09-17T13:25:31.603Z,14.24
2022-09-17T13:28:47.538Z,14.22
2022-09-17T13:31:50.993Z,14.08
2022-09-17T13:34:52.881Z,13.96
2022-09-17T13:37:59.800Z,13.88
2022-09-17T13:41:21.843Z,13.95
2022-09-17T13:44:24.095Z,13.88
2022-09-17T13:47:31.629Z,13.87
2022-09-17T13:50:33.133Z,13.84
2022-09-17T13:53:38.945Z,13.85
2022-09-17T13:56:50.734Z,13.74
2022-09-17T13:59:55.070Z,13.78
2022-09-17T14:03:29.208Z,13.70
2022-09-17T14:06:34.394Z,13.42
2022-09-17T14:09:51.364Z,13.09
2022-09-17T14:12:56.324Z,12.89
2022-09-17T14:16:02.041Z,12.77
2022-09-17T14:19:15.750Z,12.57
2022-09-17T14:22:26.809Z,12.55
2022-09-17T14:25:37.627Z,12.59
2022-09-17T14:28:43.994Z,12.51
2022-09-17T14:31:46.332Z,12.59
2022-09-17T14:34:49.947Z,12.48
2022-09-17T14:38:00.118Z,12.33
2022-09-17T14:41:08.062Z,12.09
2022-09-17T14:44:20.754Z,12.01
2022-09-17T14:47:26.533Z,11.81
2022-09-17T14:50:29.301Z,11.70
2022-09-17T14:53:31.130Z,11.53
2022-09-17T14:56:36.794Z,11.33
2022-09-17T14:59:49.844Z,11.19
2022-09-17T15:02:55.708Z,11.17
2022-09-17T15:05:57.689Z,11.13
2022-09-17T15:09:01.411Z,11.06
2022-09-17T15:12:04.820Z,11.10
2022-09-17T15:15:11.602Z,11.10
2022-09-17T15:18:14.756Z,11.20
2022-09-17T15:21:28.735Z,11.22
2022-09-17T15:24:54.204Z,11.21
2022-09-17T15:27:58.680Z,11.26
2022-09-17T15:31:00.773Z,11.23
2022-09-17T15:34:02.639Z,11.21
2022-09-17T15:37:30.873Z,11.21
2022-09-17T15:40:43.337Z,11.23
2022-09-17T15:43:47.161Z,11.15
2022-09-17T15:46:49.220Z,11.16
2022-09-17T15:50:15.820Z,11.05
2022-09-17T15:53:22.481Z,10.90
2022-09-17T15:56:31.466Z,10.82
2022-09-17T15:59:35.370Z,10.88
2022-09-17T16:02:37.377Z,10.80
2022-09-17T16:05:45.786Z,10.70
2022-09-17T16:08:53.821Z,10.64
2022-09-17T16:11:55.750Z,10.59
2022-09-17T16:15:01.608Z,10.55
2022-09-17T16:18:03.216Z,10.54
2022-09-17T16:21:05.231Z,10.55
2022-09-17T16:24:07.065Z,10.50
2022-09-17T16:27:16.542Z,10.42
2022-09-17T16:30:21.822Z,10.35
2022-09-17T16:33:24.099Z,10.29
2022-09-17T16:36:25.937Z,10.34
2022-09-17T16:39:27.527Z,10.31
2022-09-17T16:42:32.627Z,10.22
2022-09-17T16:45:34.977Z,10.21
2022-09-17T16:48:37.472Z,10.22
2022-09-17T16:51:39.285Z,10.18
2022-09-17T16:54:41.265Z,10.42
2022-09-17T16:57:44.044Z,10.40
2022-09-17T17:00:45.963Z,10.34
2022-09-17T17:03:51.741Z,10.18
2022-09-17T17:06:53.428Z,10.15
2022-09-17T17:09:55.374Z,10.13
2022-09-17T17:12:57.504Z,10.09
2022-09-17T17:15:59.331Z,10.09
2022-09-17T17:19:01.227Z,10.16
2022-09-17T17:22:03.125Z,10.14
2022-09-17T17:25:06.291Z,9.97
2022-09-17T17:28:08.065Z,9.97
2022-09-17T17:31:10.426Z,9.99
2022-09-17T17:34:12.586Z,9.82
2022-09-17T17:37:14.426Z,9.81
2022-09-17T17:40:16.358Z,9.77
2022-09-17T17:43:18.203Z,9.79
2022-09-17T17:46:20.622Z,9.81
2022-09-17T17:49:22.621Z,9.78
2022-09-17T17:52:25.011Z,9.69
2022-09-17T17:55:26.936Z,9.78
2022-09-17T17:58:29.762Z,9.75
2022-09-17T18:01:34.667Z,9.73
2022-09-17T18:04:36.439Z,9.72
2022-09-17T18:07:38.285Z,9.69
2022-09-17T18:10:40.184Z,9.65
2022-09-17T18:13:42.273Z,9.64
2022-09-17T18:16:44.220Z,9.69
2022-09-17T18:19:45.821Z,9.62
2022-09-17T18:22:47.595Z,9.60
2022-09-17T18:25:58.209Z,9.62
2022-09-17T18:29:04.347Z,9.52
2022-09-17T18:32:09.601Z,9.60
2022-09-17T18:35:11.615Z,9.57
2022-09-17T18:38:13.903Z,9.56
2022-09-17T18:41:15.834Z,9.57
2022-09-17T18:44:20.703Z,9.55
2022-09-17T18:47:22.729Z,9.44
2022-09-17T18:50:24.714Z,9.41
2022-09-17T18:53:27.991Z,9.46
2022-09-17T18:56:33.163Z,9.38
2022-09-17T18:59:35.008Z,9.38
2022-09-17T19:02:37.123Z,9.36
2022-09-17T19:05:38.946Z,9.34
2022-09-17T19:08:41.075Z,9.34
2022-09-17T19:11:42.942Z,9.29
2022-09-17T19:14:44.552Z,9.30
2022-09-17T19:17:46.547Z,9.32
2022-09-17T19:20:48.327Z,9.35
2022-09-17T19:23:52.186Z,9.44
2022-09-17T19:26:54.002Z,9.43
2022-09-17T19:29:57.801Z,9.35
2022-09-17T19:32:59.640Z,9.30
2022-09-17T19:36:06.095Z,9.30
2022-09-17T19:39:07.896Z,9.29
2022-09-17T19:42:09.695Z,9.28
2022-09-17T19:45:11.537Z,9.30
2022-09-17T19:48:13.352Z,9.35
2022-09-17T19:51:16.216Z,9.29
2022-09-17T19:54:17.990Z,9.28
2022-09-17T19:57:19.696Z,9.29
2022-09-17T20:00:21.318Z,9.27
2022-09-17T20:03:25.022Z,9.28
2022-09-17T20:06:27.240Z,9.31
2022-09-17T20:09:28.838Z,9.36
2022-09-17T20:12:30.476Z,9.35
2022-09-17T20:15:36.074Z,9.38
2022-09-17T20:18:38.544Z,9.36
2022-09-17T20:21:40.226Z,9.37
2022-09-17T20:24:41.975Z,9.30
2022-09-17T20:27:43.749Z,9.31
2022-09-17T20:30:46.264Z,9.27
2022-09-17T20:33:50.862Z,9.30
2022-09-17T20:37:06.572Z,9.32
2022-09-17T20:40:16.099Z,9.31
2022-09-17T20:43:17.986Z,9.32
2022-09-17T20:46:27.591Z,9.35
2022-09-17T20:49:30.172Z,9.38
2022-09-17T20:52:32.481Z,9.39
2022-09-17T20:55:34.404Z,9.39
2022-09-17T20:58:39.812Z,9.45
2022-09-17T21:01:45.117Z,9.45
2022-09-17T21:04:47.410Z,9.47
2022-09-17T21:07:49.277Z,9.39
2022-09-17T21:10:51.125Z,9.46
2022-09-17T21:13:53.511Z,9.45
2022-09-17T21:16:55.440Z,9.45
2022-09-17T21:19:57.623Z,9.52
2022-09-17T21:22:59.208Z,9.49
2022-09-17T21:26:05.932Z,9.62
2022-09-17T21:29:07.877Z,9.64
2022-09-17T21:32:09.802Z,9.69
2022-09-17T21:35:11.660Z,9.87
2022-09-17T21:38:13.517Z,9.78
2022-09-17T21:41:16.370Z,9.75
2022-09-17T21:44:17.948Z,9.57
2022-09-17T21:47:19.931Z,9.69
2022-09-17T21:50:25.044Z,9.71
2022-09-17T21:53:27.485Z,9.61
2022-09-17T21:56:30.475Z,9.54
2022-09-17T21:59:32.416Z,9.51
2022-09-17T22:02:35.793Z,9.56
2022-09-17T22:05:37.468Z,9.58
2022-09-17T22:08:39.935Z,9.49
2022-09-17T22:11:41.632Z,9.47
2022-09-17T22:14:43.443Z,9.47
2022-09-17T22:17:45.340Z,9.53
2022-09-17T22:20:46.923Z,9.52
2022-09-17T22:23:50.207Z,9.64
2022-09-17T22:26:57.299Z,9.66
2022-09-17T22:29:59.934Z,9.77
2022-09-17T22:33:02.007Z,9.81
2022-09-17T22:36:12.613Z,9.72
2022-09-17T22:39:14.405Z,9.82
2022-09-17T22:42:16.310Z,9.61
2022-09-17T22:45:18.374Z,9.68
2022-09-17T22:48:19.952Z,9.55
2022-09-17T22:51:21.849Z,9.66
2022-09-17T22:54:23.428Z,9.68
2022-09-17T22:57:25.239Z,9.58
2022-09-17T23:00:27.098Z,9.60
2022-09-17T23:03:28.937Z,9.57
2022-09-17T23:06:34.185Z,9.56
2022-09-17T23:09:36.134Z,9.56
2022-09-17T23:12:37.978Z,9.62
2022-09-17T23:15:40.016Z,9.50
2022-09-17T23:18:42.567Z,9.52
2022-09-17T23:21:45.184Z,9.55
2022-09-17T23:24:47.110Z,9.53
2022-09-17T23:27:48.936Z,9.58
2022-09-17T23:30:50.600Z,9.52
2022-09-17T23:33:54.443Z,9.60
2022-09-17T23:36:56.625Z,9.60
2022-09-17T23:39:58.612Z,9.67
2022-09-17T23:43:00.430Z,9.52
2022-09-17T23:46:02.359Z,9.50
2022-09-17T23:49:05.620Z,9.58
2022-09-17T23:52:07.470Z,9.81
2022-09-17T23:55:09.650Z,9.66
2022-09-17T23:58:11.247Z,9.67
